Time;durP1;ratioP1;P1;durP2;ratioP2;P2;SDS_P1;SDS_P2;PMS_P1;PMS_P2;Temp;Humidity;BMP_temperature;BMP_pressure;BME280_temperature;BME280_humidity;BME280_pressure;Samples;Min_cycle;Max_cycle;Signal;HPM_P1;HPM_P2
2022/06/26 00:00:21;;;;;;;1.73;1.40;;;;;;;19.68;75.64;98587.03;5047162;28;20194;-53
2022/06/26 00:02:48;;;;;;;1.70;1.33;;;;;;;19.59;76.88;98567.94;5044846;28;20233;-50
2022/06/26 00:05:15;;;;;;;1.87;1.40;;;;;;;19.44;80.63;98543.59;5045512;28;20196;-51
2022/06/26 00:07:42;;;;;;;3.50;1.40;;;;;;;19.39;81.85;98540.75;5046540;28;20249;-52
2022/06/26 00:10:10;;;;;;;3.37;1.53;;;;;;;19.18;84.13;98526.78;5047157;28;20523;-50
2022/06/26 00:12:37;;;;;;;3.07;1.80;;;;;;;18.98;88.04;98517.09;5050585;28;20197;-50
2022/06/26 00:15:05;;;;;;;3.27;1.67;;;;;;;18.83;89.84;98522.59;5047370;28;20194;-51
2022/06/26 00:17:34;;;;;;;3.73;1.53;;;;;;;18.77;89.34;98531.34;5029813;28;20222;-49
2022/06/26 00:20:01;;;;;;;4.93;1.43;;;;;;;18.59;89.81;98526.72;5029311;28;20286;-50
2022/06/26 00:22:29;;;;;;;4.10;2.10;;;;;;;18.44;93.82;98514.53;5026187;28;20697;-51
2022/06/26 00:24:56;;;;;;;2.97;1.90;;;;;;;18.30;96.79;98518.19;5045454;28;20582;-51
2022/06/26 00:27:22;;;;;;;6.00;1.90;;;;;;;18.19;98.14;98527.56;5042187;28;20225;-50
2022/06/26 00:29:49;;;;;;;2.70;1.83;;;;;;;18.17;98.39;98526.94;5028146;28;20238;-50
2022/06/26 00:32:16;;;;;;;2.00;1.50;;;;;;;18.07;99.41;98526.53;5043523;28;20269;-50
2022/06/26 00:34:44;;;;;;;4.43;1.80;;;;;;;18.05;100.00;98524.06;5019925;28;20197;-49
2022/06/26 00:37:11;;;;;;;3.03;2.07;;;;;;;18.05;100.00;98515.34;5025635;28;20752;-51
2022/06/26 00:39:38;;;;;;;3.10;1.90;;;;;;;17.93;100.00;98513.28;5047421;28;20697;-50
2022/06/26 00:42:05;;;;;;;2.83;2.10;;;;;;;17.89;100.00;98516.53;5034627;28;20202;-49
2022/06/26 00:44:32;;;;;;;4.40;1.83;;;;;;;17.87;100.00;98515.91;5036785;28;20211;-50
2022/06/26 00:46:59;;;;;;;2.43;2.00;;;;;;;17.85;100.00;98519.56;5036525;28;20276;-50
2022/06/26 00:49:26;;;;;;;3.27;2.10;;;;;;;17.88;100.00;98522.81;5037130;28;20194;-49
2022/06/26 00:51:55;;;;;;;3.50;2.10;;;;;;;17.88;100.00;98515.69;5054864;28;20183;-49
2022/06/26 00:54:26;;;;;;;2.50;2.00;;;;;;;17.80;100.00;98516.72;5036966;28;20184;-50
2022/06/26 00:56:56;;;;;;;2.53;2.10;;;;;;;17.89;100.00;98511.25;5036355;28;20627;-49
2022/06/26 00:59:24;;;;;;;2.37;1.90;;;;;;;17.82;100.00;98511.22;5036569;28;20245;-50
2022/06/26 01:01:51;;;;;;;3.47;2.00;;;;;;;17.82;100.00;98519.97;5036795;28;20291;-49
2022/06/26 01:04:18;;;;;;;4.37;2.27;;;;;;;17.78;100.00;98505.53;5035959;28;20289;-50
2022/06/26 01:06:46;;;;;;;2.57;2.17;;;;;;;17.76;100.00;98515.50;5051065;28;20213;-50
2022/06/26 01:09:14;;;;;;;2.63;2.20;;;;;;;17.73;100.00;98512.41;5036660;28;20259;-51
2022/06/26 01:12:00;;;;;;;2.50;2.10;;;;;;;17.67;100.00;98506.13;5048250;28;20212;-50
2022/06/26 01:14:30;;;;;;;3.17;1.80;;;;;;;17.61;100.00;98507.72;5034920;28;20600;-50
2022/06/26 01:16:59;;;;;;;3.60;2.13;;;;;;;17.57;100.00;98514.41;5035904;28;20221;-50
2022/06/26 01:19:27;;;;;;;3.07;2.00;;;;;;;17.59;100.00;98515.03;5036242;28;20197;-49
2022/06/26 01:21:54;;;;;;;2.30;2.10;;;;;;;17.53;100.00;98514.00;5036335;28;20205;-50
2022/06/26 01:24:23;;;;;;;2.13;1.70;;;;;;;17.46;100.00;98509.75;5036373;28;20612;-50
2022/06/26 01:26:50;;;;;;;2.50;1.90;;;;;;;17.42;100.00;98511.94;5028323;28;20213;-49
2022/06/26 01:29:17;;;;;;;2.30;1.97;;;;;;;17.40;100.00;98500.78;5020573;28;20211;-49
2022/06/26 01:31:44;;;;;;;2.50;1.60;;;;;;;17.39;100.00;98501.78;5030051;28;20561;-50
2022/06/26 01:34:12;;;;;;;2.10;1.97;;;;;;;17.39;100.00;98499.97;5049874;28;20202;-50
2022/06/26 01:36:40;;;;;;;2.10;1.90;;;;;;;17.40;100.00;98490.22;5019075;28;20573;-50
2022/06/26 01:39:08;;;;;;;3.20;1.73;;;;;;;17.36;100.00;98483.72;5025292;28;20212;-49
2022/06/26 01:41:37;;;;;;;2.00;1.80;;;;;;;17.34;100.00;98476.00;5023751;28;20202;-49
2022/06/26 01:44:07;;;;;;;2.30;1.67;;;;;;;17.32;100.00;98474.56;5020223;28;20244;-50
2022/06/26 01:46:36;;;;;;;2.70;1.93;;;;;;;17.30;100.00;98469.50;5028621;28;20218;-50
2022/06/26 01:49:04;;;;;;;2.90;2.00;;;;;;;17.23;100.00;98463.38;5021956;28;20299;-50
2022/06/26 01:51:33;;;;;;;2.10;1.90;;;;;;;17.16;100.00;98458.06;5039018;28;20883;-51
2022/06/26 01:54:01;;;;;;;2.00;1.77;;;;;;;17.16;100.00;98457.28;5029202;28;20202;-50
2022/06/26 01:56:28;;;;;;;1.87;1.60;;;;;;;17.06;100.00;98453.19;5028851;28;20224;-50
2022/06/26 01:58:57;;;;;;;1.33;1.23;;;;;;;17.03;100.00;98455.38;5042010;28;20184;-51
2022/06/26 02:01:31;;;;;;;2.00;1.50;;;;;;;16.94;100.00;98447.66;5026654;28;20539;-50
2022/06/26 02:03:58;;;;;;;2.37;1.63;;;;;;;16.84;100.00;98457.72;5025290;28;20216;-50
2022/06/26 02:06:25;;;;;;;3.53;1.40;;;;;;;16.73;100.00;98456.44;5027309;28;20217;-49
2022/06/26 02:08:54;;;;;;;4.03;1.60;;;;;;;16.73;100.00;98458.28;5019372;28;20229;-51
2022/06/26 02:14:09;;;;;;;1.50;1.40;;;;;;;16.61;100.00;98455.38;5024608;28;20728;-50
2022/06/26 02:16:42;;;;;;;1.70;1.30;;;;;;;16.55;100.00;98451.69;5014645;28;20249;-53
2022/06/26 02:19:10;;;;;;;1.90;1.30;;;;;;;16.45;100.00;98444.13;5016506;28;20204;-51
2022/06/26 02:21:39;;;;;;;3.17;1.50;;;;;;;16.41;100.00;98442.09;5022589;28;20570;-50
2022/06/26 02:24:06;;;;;;;2.17;1.50;;;;;;;16.28;100.00;98443.63;5029076;28;20204;-51
2022/06/26 02:26:33;;;;;;;1.50;1.40;;;;;;;16.18;100.00;98437.88;5018169;28;20793;-51
2022/06/26 02:29:00;;;;;;;2.53;1.50;;;;;;;16.14;100.00;98436.63;5021102;28;20212;-51
2022/06/26 02:31:30;;;;;;;1.40;1.30;;;;;;;16.13;100.00;98435.00;5014599;28;20208;-50
2022/06/26 02:33:58;;;;;;;1.50;1.40;;;;;;;16.04;100.00;98427.25;5044257;28;20211;-50
2022/06/26 02:36:25;;;;;;;1.50;1.40;;;;;;;15.91;100.00;98417.44;5023125;28;20219;-50
2022/06/26 02:38:52;;;;;;;3.13;1.60;;;;;;;15.87;100.00;98410.94;5027867;28;20207;-50
2022/06/26 02:41:18;;;;;;;1.97;1.70;;;;;;;15.82;100.00;98412.47;5022171;28;20286;-50
2022/06/26 02:43:47;;;;;;;2.20;2.00;;;;;;;15.78;100.00;98412.03;5023651;28;20230;-50
2022/06/26 02:46:14;;;;;;;4.33;1.60;;;;;;;15.71;100.00;98424.31;5012776;28;20315;-50
2022/06/26 02:48:45;;;;;;;3.10;1.97;;;;;;;15.71;100.00;98433.03;5020771;28;20230;-49
2022/06/26 02:51:15;;;;;;;2.23;1.87;;;;;;;15.63;100.00;98426.06;5025246;28;20208;-50
2022/06/26 02:53:42;;;;;;;2.57;1.90;;;;;;;15.59;100.00;98416.13;5017381;28;20196;-49
2022/06/26 02:56:09;;;;;;;2.60;1.60;;;;;;;15.52;100.00;98415.25;5019962;28;20206;-50
2022/06/26 02:58:36;;;;;;;2.10;1.80;;;;;;;15.50;100.00;98423.31;5024119;28;20539;-51
2022/06/26 03:01:04;;;;;;;1.87;1.60;;;;;;;15.46;100.00;98422.88;5022784;28;20291;-52
2022/06/26 03:03:31;;;;;;;4.30;2.07;;;;;;;15.43;100.00;98436.41;5027168;28;20206;-51
2022/06/26 03:05:59;;;;;;;2.97;1.83;;;;;;;15.48;100.00;98438.47;5053386;28;20682;-50
2022/06/26 03:08:27;;;;;;;1.90;1.80;;;;;;;15.45;100.00;98449.38;5025438;28;20675;-50
2022/06/26 03:10:55;;;;;;;3.93;2.30;;;;;;;15.44;100.00;98459.09;5022322;28;21048;-50
2022/06/26 03:13:24;;;;;;;2.80;1.60;;;;;;;15.42;100.00;98457.63;5028020;28;20202;-50
2022/06/26 03:15:50;;;;;;;2.10;1.87;;;;;;;15.37;100.00;98465.28;5051523;28;20202;-50
2022/06/26 03:18:18;;;;;;;2.27;1.70;;;;;;;15.36;100.00;98477.59;5021956;28;20200;-51
2022/06/26 03:20:46;;;;;;;2.43;2.23;;;;;;;15.40;100.00;98476.25;5015273;28;20213;-56
2022/06/26 03:23:14;;;;;;;2.17;1.97;;;;;;;15.50;100.00;98478.56;5041894;28;20412;-50
2022/06/26 03:25:40;;;;;;;6.10;2.03;;;;;;;15.49;100.00;98479.56;5012896;28;20289;-51
2022/06/26 03:28:07;;;;;;;3.73;2.17;;;;;;;15.54;100.00;98463.22;5050750;28;20224;-51
2022/06/26 03:30:43;;;;;;;2.40;1.80;;;;;;;15.56;100.00;98472.53;5016431;28;20215;-50
2022/06/26 03:33:10;;;;;;;2.20;2.00;;;;;;;15.56;100.00;98472.53;5019928;28;20207;-52
2022/06/26 03:35:37;;;;;;;4.37;2.23;;;;;;;15.59;100.00;98474.00;5035173;28;20716;-52
2022/06/26 03:38:05;;;;;;;2.43;2.07;;;;;;;15.63;100.00;98473.44;5024642;28;20285;-52
2022/06/26 03:40:35;;;;;;;4.33;2.20;;;;;;;15.66;100.00;98474.88;5022445;28;20703;-49
2022/06/26 03:43:04;;;;;;;2.57;2.10;;;;;;;15.66;100.00;98472.25;5025800;28;20202;-50
2022/06/26 03:45:45;;;;;;;2.80;2.17;;;;;;;15.63;100.00;98467.38;5019816;28;20676;-50
2022/06/26 03:48:12;;;;;;;2.70;2.10;;;;;;;15.65;100.00;98470.63;5020867;28;20269;-52
2022/06/26 03:50:39;;;;;;;3.47;2.30;;;;;;;15.70;100.00;98462.16;5021055;28;20210;-50
2022/06/26 03:53:06;;;;;;;4.20;1.83;;;;;;;15.79;100.00;98475.03;5023051;28;20203;-49
2022/06/26 03:55:33;;;;;;;3.10;2.00;;;;;;;15.75;100.00;98462.41;5026566;28;20569;-51
2022/06/26 03:58:03;;;;;;;2.63;1.90;;;;;;;15.67;100.00;98450.19;5048550;28;20219;-50
2022/06/26 04:00:34;;;;;;;2.20;2.00;;;;;;;15.60;100.00;98444.06;5023167;28;20209;-51
2022/06/26 04:03:03;;;;;;;2.73;1.80;;;;;;;15.61;100.00;98446.50;5049465;28;20207;-49
2022/06/26 04:05:31;;;;;;;4.53;1.93;;;;;;;15.61;100.00;98443.06;5045379;28;20686;-49
2022/06/26 04:07:59;;;;;;;4.97;2.30;;;;;;;15.60;100.00;98449.31;5022922;28;20219;-50
2022/06/26 04:10:32;;;;;;;1.77;1.67;;;;;;;15.56;100.00;98448.88;5027178;28;20580;-49
2022/06/26 04:13:00;;;;;;;3.63;1.67;;;;;;;15.60;100.00;98454.59;5022692;28;20196;-50
2022/06/26 04:15:36;;;;;;;3.07;1.77;;;;;;;15.60;100.00;98457.22;5032918;28;20246;-49
2022/06/26 04:18:05;;;;;;;3.30;2.00;;;;;;;15.58;100.00;98448.69;5020403;28;20311;-49
2022/06/26 04:20:33;;;;;;;1.63;1.53;;;;;;;15.53;100.00;98445.81;5027146;28;20672;-49
2022/06/26 04:23:04;;;;;;;2.43;1.60;;;;;;;15.54;100.00;98445.63;5025516;28;20218;-50
2022/06/26 04:25:34;;;;;;;2.00;1.80;;;;;;;15.54;100.00;98450.06;5031015;28;20242;-49
2022/06/26 04:28:03;;;;;;;3.80;2.10;;;;;;;15.55;100.00;98452.50;5026199;28;20215;-50
2022/06/26 04:30:35;;;;;;;2.60;1.80;;;;;;;15.56;100.00;98450.69;5022264;28;20277;-50
2022/06/26 04:33:02;;;;;;;2.90;2.07;;;;;;;15.59;100.00;98463.47;5024127;28;20207;-49
2022/06/26 04:35:31;;;;;;;2.10;1.80;;;;;;;15.59;100.00;98469.53;5048244;28;21540;-49
2022/06/26 04:38:17;;;;;;;2.00;1.70;;;;;;;15.61;100.00;98482.53;5047385;28;20237;-49
2022/06/26 04:40:44;;;;;;;1.73;1.53;;;;;;;15.64;100.00;98484.78;5022936;28;20214;-50
2022/06/26 04:43:11;;;;;;;1.70;1.60;;;;;;;15.70;100.00;98494.56;5040424;28;20194;-50
2022/06/26 04:45:45;;;;;;;2.17;1.90;;;;;;;15.65;100.00;98495.09;5022562;28;20245;-50
2022/06/26 04:48:12;;;;;;;3.00;2.03;;;;;;;15.67;100.00;98507.25;5026709;28;20211;-51
2022/06/26 04:50:40;;;;;;;1.77;1.67;;;;;;;15.67;100.00;98508.09;5024631;28;20220;-50
2022/06/26 04:53:06;;;;;;;2.00;1.80;;;;;;;15.79;100.00;98509.22;5049235;28;20721;-50
2022/06/26 04:55:33;;;;;;;2.70;1.97;;;;;;;15.83;100.00;98503.59;5029604;28;20223;-50
2022/06/26 04:58:02;;;;;;;3.53;1.80;;;;;;;15.86;100.00;98490.06;5055204;28;20239;-50
2022/06/26 05:00:29;;;;;;;7.10;1.97;;;;;;;15.96;100.00;98502.91;5021942;28;20180;-51
2022/06/26 05:03:16;;;;;;;2.30;2.10;;;;;;;16.02;100.00;98510.88;5047521;28;20258;-50
2022/06/26 05:06:00;;;;;;;3.13;2.27;;;;;;;16.13;100.00;98508.72;5014052;28;20203;-49
2022/06/26 05:08:36;;;;;;;1.70;1.60;;;;;;;16.19;100.00;98492.16;5024448;28;20210;-53
2022/06/26 05:11:03;;;;;;;2.43;1.90;;;;;;;16.25;100.00;98491.41;5022224;28;20737;-50
2022/06/26 05:13:36;;;;;;;1.60;1.50;;;;;;;16.30;100.00;98501.38;5028434;28;20529;-50
2022/06/26 05:16:23;;;;;;;1.90;1.70;;;;;;;16.37;100.00;98520.69;5026465;28;20234;-49
2022/06/26 05:18:52;;;;;;;3.63;2.03;;;;;;;16.35;100.00;98510.34;5030275;28;20727;-50
2022/06/26 05:21:20;;;;;;;3.20;1.50;;;;;;;16.36;100.00;98503.25;5026395;28;20522;-52
2022/06/26 05:23:48;;;;;;;2.90;1.40;;;;;;;16.39;100.00;98502.88;5029699;28;20583;-50
2022/06/26 05:26:16;;;;;;;3.10;1.60;;;;;;;16.36;100.00;98492.72;5023586;28;20224;-50
2022/06/26 05:28:43;;;;;;;2.07;1.80;;;;;;;16.36;100.00;98490.88;5023223;28;20686;-50
2022/06/26 05:31:10;;;;;;;1.80;1.70;;;;;;;16.38;100.00;98488.88;5016963;28;20205;-51
2022/06/26 05:33:41;;;;;;;2.43;1.60;;;;;;;16.44;100.00;98494.38;5022936;28;20196;-50
2022/06/26 05:36:12;;;;;;;2.23;1.67;;;;;;;16.50;100.00;98491.78;5028805;28;20692;-50
2022/06/26 05:38:40;;;;;;;2.87;1.80;;;;;;;16.60;100.00;98495.91;5034383;28;20279;-51
2022/06/26 05:41:07;;;;;;;1.93;1.70;;;;;;;16.69;100.00;98505.28;5025583;28;20212;-51
2022/06/26 05:43:36;;;;;;;2.20;1.63;;;;;;;17.15;100.00;98506.56;5024628;28;20200;-50
2022/06/26 05:46:08;;;;;;;1.53;1.40;;;;;;;17.62;100.00;98512.00;5025053;28;20199;-53
2022/06/26 05:48:53;;;;;;;2.87;1.80;;;;;;;18.02;99.96;98529.75;5034977;28;20216;-50
2022/06/26 05:51:41;;;;;;;1.97;1.87;;;;;;;18.30;98.37;98528.75;5030033;28;20862;-50
2022/06/26 05:54:26;;;;;;;1.60;1.50;;;;;;;18.52;95.50;98536.47;5048175;28;20197;-50
2022/06/26 05:57:08;;;;;;;1.50;1.40;;;;;;;18.54;93.74;98531.81;5013652;28;20217;-50
2022/06/26 05:59:45;;;;;;;2.90;1.60;;;;;;;18.60;94.19;98538.91;5016612;28;20253;-49
2022/06/26 06:02:32;;;;;;;1.93;1.50;;;;;;;18.76;95.25;98542.16;5029518;28;20219;-50
2022/06/26 06:04:59;;;;;;;2.80;1.97;;;;;;;18.77;92.56;98549.06;5010773;28;20202;-50
2022/06/26 06:07:28;;;;;;;2.07;1.87;;;;;;;18.76;92.60;98552.72;5025998;28;20632;-50
2022/06/26 06:09:55;;;;;;;2.70;1.60;;;;;;;18.95;93.84;98557.16;5024776;28;20201;-51
2022/06/26 06:12:25;;;;;;;2.00;1.70;;;;;;;19.06;93.56;98561.03;5046976;28;20206;-49
2022/06/26 06:14:52;;;;;;;2.20;2.00;;;;;;;19.13;91.26;98551.25;5044308;28;20208;-51
2022/06/26 06:17:37;;;;;;;2.10;1.83;;;;;;;19.33;92.07;98553.81;5019882;28;20682;-49
2022/06/26 06:20:07;;;;;;;3.43;1.80;;;;;;;19.44;91.63;98554.16;5021858;28;20192;-50
2022/06/26 06:22:40;;;;;;;3.40;1.80;;;;;;;19.70;89.41;98576.25;5020847;28;20224;-50
2022/06/26 06:25:09;;;;;;;2.77;1.87;;;;;;;19.74;87.67;98575.59;5028186;28;20228;-50
2022/06/26 06:27:37;;;;;;;5.00;3.23;;;;;;;19.75;86.25;98568.50;5026693;28;20224;-51
2022/06/26 06:30:10;;;;;;;3.90;2.10;;;;;;;19.91;86.36;98575.16;5019610;28;20210;-50
2022/06/26 06:32:37;;;;;;;2.33;2.07;;;;;;;19.90;86.29;98571.69;5020865;28;20679;-49
2022/06/26 06:35:11;;;;;;;4.90;2.17;;;;;;;20.08;87.03;98578.13;5022161;28;20217;-50
2022/06/26 06:37:57;;;;;;;2.38;2.13;;;;;;;20.24;87.56;98575.94;5038439;28;20419;-50
2022/06/26 06:40:25;;;;;;;4.53;2.53;;;;;;;20.14;83.79;98571.13;5022252;28;20215;-50
2022/06/26 06:42:55;;;;;;;4.03;2.23;;;;;;;19.97;86.86;98578.78;5020338;28;20571;-50
2022/06/26 06:45:26;;;;;;;2.20;1.90;;;;;;;20.05;85.44;98583.84;5027452;28;20736;-49
2022/06/26 06:48:01;;;;;;;2.83;2.53;;;;;;;20.01;85.35;98590.59;5027541;28;20235;-50
2022/06/26 06:50:47;;;;;;;5.50;2.50;;;;;;;20.00;83.26;98581.03;5040374;28;20343;-50
2022/06/26 06:53:15;;;;;;;3.20;2.20;;;;;;;20.03;85.43;98584.03;5020024;28;20221;-50
2022/06/26 06:55:43;;;;;;;4.83;2.50;;;;;;;20.38;86.43;98580.13;5034050;28;20194;-50
2022/06/26 06:58:10;;;;;;;3.30;2.47;;;;;;;20.71;83.85;98579.03;5040796;28;20227;-51
2022/06/26 07:00:41;;;;;;;3.80;2.73;;;;;;;20.85;80.79;98581.59;5027485;28;20205;-50
2022/06/26 07:03:12;;;;;;;3.17;2.80;;;;;;;20.68;81.08;98578.66;5027490;28;20194;-50
2022/06/26 07:05:39;;;;;;;5.80;3.90;;;;;;;20.72;81.79;98580.66;5045242;28;20628;-50
2022/06/26 07:08:06;;;;;;;4.30;3.03;;;;;;;20.77;80.42;98582.66;5048552;28;20297;-51
2022/06/26 07:10:36;;;;;;;4.40;2.60;;;;;;;20.75;81.87;98582.06;5034539;28;20226;-50
2022/06/26 07:13:02;;;;;;;4.40;2.67;;;;;;;20.86;80.85;98588.53;5022199;28;20320;-51
2022/06/26 07:15:30;;;;;;;4.60;2.80;;;;;;;21.01;79.03;98588.16;5042882;28;20646;-50
2022/06/26 07:17:56;;;;;;;3.47;3.00;;;;;;;20.90;80.84;98585.19;5049872;28;20248;-50
2022/06/26 07:20:24;;;;;;;3.83;2.83;;;;;;;20.81;80.90;98589.16;5023507;28;20191;-50
2022/06/26 07:22:54;;;;;;;5.03;2.77;;;;;;;21.15;79.79;98589.66;5027017;28;20188;-50
2022/06/26 07:31:00;;;;;;;3.23;2.77;;;;;;;21.05;76.85;98587.53;5036266;28;20224;-50
2022/06/26 07:36:13;;;;;;;2.53;2.33;;;;;;;21.46;78.19;98592.38;5017843;28;20359;-50
2022/06/26 07:38:41;;;;;;;5.80;2.80;;;;;;;21.95;72.87;98595.84;5043725;28;20205;-49
2022/06/26 07:41:08;;;;;;;5.10;2.40;;;;;;;22.53;72.83;98606.06;5025431;28;20195;-50
2022/06/26 07:43:37;;;;;;;2.67;2.43;;;;;;;22.99;69.22;98611.63;5026827;28;20650;-49
2022/06/26 07:46:25;;;;;;;2.83;2.30;;;;;;;22.81;70.75;98625.84;5045019;28;20216;-52
2022/06/26 07:48:52;;;;;;;3.30;2.20;;;;;;;22.83;67.27;98623.75;5014895;28;20218;-52
2022/06/26 07:51:19;;;;;;;2.40;2.00;;;;;;;22.68;68.75;98621.56;5025505;28;20225;-50
2022/06/26 07:53:46;;;;;;;3.20;2.17;;;;;;;22.39;67.98;98619.53;5041079;28;20201;-52
2022/06/26 07:56:13;;;;;;;3.20;2.07;;;;;;;21.95;69.50;98618.94;5046595;28;20223;-50
2022/06/26 07:58:42;;;;;;;3.17;1.77;;;;;;;22.17;68.49;98618.44;5045820;28;20196;-49
2022/06/26 08:01:09;;;;;;;2.27;1.57;;;;;;;22.25;68.51;98626.09;5044160;28;20235;-50
2022/06/26 08:03:36;;;;;;;3.17;1.70;;;;;;;22.40;65.93;98631.81;5018001;28;20211;-49
2022/06/26 08:06:05;;;;;;;2.37;1.97;;;;;;;22.35;67.94;98623.69;5047780;28;20273;-52
2022/06/26 08:08:31;;;;;;;1.97;1.70;;;;;;;22.49;66.80;98629.63;5048534;28;20199;-49
2022/06/26 08:10:58;;;;;;;2.33;1.87;;;;;;;22.53;68.14;98630.00;5047499;28;20218;-50
2022/06/26 08:13:26;;;;;;;3.77;1.97;;;;;;;22.00;67.22;98626.25;5048501;28;20197;-50
2022/06/26 08:15:54;;;;;;;2.00;1.80;;;;;;;21.99;68.57;98614.00;5038751;28;20194;-50
2022/06/26 08:18:21;;;;;;;1.63;1.53;;;;;;;21.59;67.89;98602.03;5045598;28;20207;-50
2022/06/26 08:20:48;;;;;;;1.70;1.60;;;;;;;21.69;68.64;98607.66;5036489;28;20191;-50
2022/06/26 08:23:14;;;;;;;2.03;1.70;;;;;;;21.86;68.11;98605.19;5037965;28;20194;-51
2022/06/26 08:25:42;;;;;;;2.77;1.70;;;;;;;21.89;67.42;98614.53;5047937;28;20544;-50
2022/06/26 08:28:27;;;;;;;2.03;1.70;;;;;;;21.91;67.72;98612.47;5048852;28;20683;-49
2022/06/26 08:30:55;;;;;;;1.90;1.70;;;;;;;21.87;70.26;98605.97;5045492;28;20581;-52
2022/06/26 08:33:22;;;;;;;2.83;1.83;;;;;;;21.96;71.95;98623.22;5047850;28;20197;-50
2022/06/26 08:35:49;;;;;;;2.00;1.80;;;;;;;21.98;70.23;98629.13;5039856;28;20610;-50
2022/06/26 08:38:16;;;;;;;2.53;2.33;;;;;;;21.86;70.91;98638.88;5047418;28;20604;-50
2022/06/26 08:40:44;;;;;;;3.10;2.00;;;;;;;21.82;70.80;98641.19;5022246;28;20699;-49
2022/06/26 08:43:13;;;;;;;2.40;2.20;;;;;;;21.68;71.68;98636.06;5024780;28;20197;-50
2022/06/26 08:45:41;;;;;;;5.27;2.20;;;;;;;21.64;72.67;98644.69;5047638;28;20710;-51
2022/06/26 08:48:13;;;;;;;2.30;2.10;;;;;;;21.55;72.57;98643.34;5047148;28;20254;-49
2022/06/26 08:50:40;;;;;;;3.57;2.17;;;;;;;21.38;72.65;98647.38;5044262;28;20217;-49
2022/06/26 08:53:07;;;;;;;5.00;2.50;;;;;;;21.39;73.06;98643.69;5026892;28;20192;-50
2022/06/26 08:55:34;;;;;;;2.53;1.90;;;;;;;21.42;73.05;98647.78;5043897;28;20190;-49
2022/06/26 08:58:01;;;;;;;2.83;2.27;;;;;;;21.42;73.67;98645.13;5036390;28;20567;-49
2022/06/26 09:00:29;;;;;;;2.73;1.90;;;;;;;21.52;73.02;98656.03;5038605;28;20247;-50
2022/06/26 09:02:56;;;;;;;1.80;1.70;;;;;;;21.65;71.65;98652.44;5034003;28;20281;-49
2022/06/26 09:05:25;;;;;;;2.87;1.90;;;;;;;21.70;70.48;98653.59;5018100;28;20304;-50
2022/06/26 09:07:53;;;;;;;3.57;2.23;;;;;;;21.91;70.05;98653.16;5035524;28;20214;-50
2022/06/26 09:10:21;;;;;;;2.20;2.00;;;;;;;22.07;70.74;98649.03;5040390;28;20539;-51
2022/06/26 09:12:52;;;;;;;2.40;1.80;;;;;;;22.19;70.54;98656.25;5020277;28;20217;-53
2022/06/26 09:15:22;;;;;;;3.47;1.93;;;;;;;22.16;67.04;98651.38;5038684;28;20197;-53
2022/06/26 09:17:58;;;;;;;3.23;1.50;;;;;;;22.32;66.37;98657.88;5036420;28;20224;-53
2022/06/26 09:20:26;;;;;;;1.67;1.40;;;;;;;22.10;65.94;98656.56;5037647;28;20193;-51
2022/06/26 09:22:54;;;;;;;5.77;1.77;;;;;;;22.12;66.48;98661.66;5035550;28;20603;-52
2022/06/26 09:25:33;;;;;;;3.30;1.63;;;;;;;22.25;65.79;98663.31;5034097;28;20218;-51
2022/06/26 09:28:06;;;;;;;1.80;1.70;;;;;;;22.25;67.31;98666.81;5039859;28;20273;-51
2022/06/26 09:30:32;;;;;;;2.30;1.77;;;;;;;22.45;67.85;98663.03;5035301;28;20241;-52
2022/06/26 09:33:02;;;;;;;2.53;1.70;;;;;;;22.45;67.52;98668.38;5039536;28;20196;-50
2022/06/26 09:35:30;;;;;;;2.90;1.90;;;;;;;22.45;65.90;98664.91;5035873;28;20249;-52
2022/06/26 09:37:59;;;;;;;4.53;1.90;;;;;;;22.53;65.77;98654.75;5037872;28;20225;-51
2022/06/26 09:40:27;;;;;;;2.10;1.60;;;;;;;22.48;66.51;98648.50;5040334;28;20213;-50
2022/06/26 09:42:54;;;;;;;3.77;2.03;;;;;;;22.38;66.00;98659.66;5036284;28;20192;-51
2022/06/26 09:45:21;;;;;;;2.27;1.87;;;;;;;22.39;66.79;98658.59;5037792;28;20211;-52
2022/06/26 09:47:48;;;;;;;1.87;1.77;;;;;;;22.47;67.36;98650.34;5037917;28;20719;-51
2022/06/26 09:50:15;;;;;;;3.33;1.40;;;;;;;22.54;68.73;98653.69;5036287;28;20219;-51
2022/06/26 09:52:44;;;;;;;3.10;1.83;;;;;;;22.61;67.70;98658.94;5039874;28;20210;-50
2022/06/26 09:55:12;;;;;;;2.93;1.70;;;;;;;22.61;67.19;98650.97;5039736;28;20643;-51
2022/06/26 09:57:38;;;;;;;1.63;1.50;;;;;;;22.59;68.01;98645.06;5035944;28;20222;-51
2022/06/26 10:00:07;;;;;;;1.90;1.60;;;;;;;22.67;67.47;98655.38;5016569;28;20193;-51
2022/06/26 10:08:28;;;;;;;1.77;1.60;;;;;;;22.83;68.64;98651.19;5020529;28;20202;-52
2022/06/26 10:10:58;;;;;;;2.20;1.90;;;;;;;22.90;66.60;98640.44;5037468;28;20607;-53
2022/06/26 10:13:26;;;;;;;1.70;1.60;;;;;;;23.09;66.11;98645.63;5035943;28;20191;-51
2022/06/26 10:16:01;;;;;;;3.80;1.53;;;;;;;23.32;66.45;98644.03;5037837;28;20285;-54
2022/06/26 10:18:44;;;;;;;2.27;2.03;;;;;;;23.33;62.75;98637.66;5031906;28;20205;-51
2022/06/26 10:21:13;;;;;;;1.93;1.70;;;;;;;23.67;62.82;98637.81;5034854;28;20212;-51
2022/06/26 10:23:46;;;;;;;3.03;2.00;;;;;;;24.02;60.45;98643.06;5020226;28;20285;-51
2022/06/26 10:26:15;;;;;;;2.13;1.60;;;;;;;24.60;59.63;98637.59;5019699;28;20249;-49
2022/06/26 10:28:59;;;;;;;2.50;1.50;;;;;;;25.16;58.35;98636.84;5031362;28;20198;-51
2022/06/26 10:31:30;;;;;;;2.37;1.73;;;;;;;25.71;54.59;98636.22;5034930;28;20563;-52
2022/06/26 10:34:09;;;;;;;1.83;1.43;;;;;;;25.51;54.83;98642.94;5033596;28;20277;-49
2022/06/26 10:36:37;;;;;;;2.20;1.80;;;;;;;25.22;54.88;98632.38;5032414;28;20512;-52
2022/06/26 10:39:07;;;;;;;4.00;1.73;;;;;;;25.28;55.44;98631.41;5033469;28;20222;-53
2022/06/26 10:44:34;;;;;;;2.43;1.33;;;;;;;26.37;53.24;98635.28;5034171;28;20197;-50
2022/06/26 10:47:01;;;;;;;1.40;1.30;;;;;;;26.57;53.31;98641.88;5018137;28;20799;-49
2022/06/26 10:49:28;;;;;;;1.70;1.60;;;;;;;26.65;52.29;98638.72;5034112;28;20682;-49
2022/06/26 10:51:56;;;;;;;1.93;1.27;;;;;;;26.63;52.70;98638.97;5032968;28;20237;-50
2022/06/26 10:54:27;;;;;;;1.40;1.30;;;;;;;26.48;51.95;98631.63;5034791;28;20195;-54
2022/06/26 10:57:12;;;;;;;3.70;1.50;;;;;;;26.17;53.70;98628.69;5044203;28;20629;-53
2022/06/26 10:59:40;;;;;;;3.67;1.70;;;;;;;25.63;53.47;98624.91;5031708;28;20200;-49
2022/06/26 11:02:10;;;;;;;2.33;1.50;;;;;;;26.08;52.97;98625.63;5034407;28;20202;-49
2022/06/26 11:04:44;;;;;;;1.77;1.67;;;;;;;26.31;51.97;98620.25;5017393;28;20202;-49
2022/06/26 11:07:14;;;;;;;4.63;1.80;;;;;;;26.08;52.54;98619.47;5031538;28;20235;-50
2022/06/26 11:09:42;;;;;;;1.48;1.33;;;;;;;26.60;54.13;98620.72;5033378;28;20322;-51
2022/06/26 11:12:09;;;;;;;1.50;1.30;;;;;;;27.19;53.27;98621.66;5033725;28;20669;-52
2022/06/26 11:14:36;;;;;;;1.33;1.00;;;;;;;27.84;49.31;98618.69;5035416;28;20250;-50
2022/06/26 11:17:05;;;;;;;2.80;1.50;;;;;;;28.09;47.96;98617.13;5037012;28;20307;-50
2022/06/26 11:20:46;;;;;;;2.77;1.40;;;;;;;27.24;50.44;98612.84;5035256;28;20229;-57
2022/06/26 11:22:21;;;;;;;2.22;1.70;;;;;;;27.11;51.00;98604.19;5034019;28;20250;-51
2022/06/26 11:24:51;;;;;;;1.75;1.65;;;;;;;27.32;51.41;98604.28;5037131;28;20217;-52
2022/06/26 11:27:38;;;;;;;1.65;1.50;;;;;;;27.37;49.46;98611.56;5033437;28;20230;-50
2022/06/26 11:30:06;;;;;;;2.40;1.58;;;;;;;27.01;51.05;98608.72;5035697;28;20645;-50
2022/06/26 11:32:52;;;;;;;1.20;1.10;;;;;;;26.72;51.96;98599.16;5035441;28;21422;-50
2022/06/26 11:35:26;;;;;;;1.77;1.30;;;;;;;26.46;52.99;98601.63;5033823;28;20695;-52
2022/06/26 11:37:52;;;;;;;2.28;1.40;;;;;;;26.17;52.53;98595.78;5032920;28;20282;-51
2022/06/26 11:40:22;;;;;;;1.60;1.50;;;;;;;25.79;54.24;98596.47;5034403;28;20226;-51
2022/06/26 11:42:55;;;;;;;2.00;1.40;;;;;;;25.92;54.96;98595.28;5035734;28;20237;-53
2022/06/26 11:45:24;;;;;;;2.30;1.40;;;;;;;26.47;53.92;98600.56;5016758;28;20222;-50
2022/06/26 11:47:52;;;;;;;3.83;1.30;;;;;;;26.67;50.48;98588.41;5033350;28;20254;-52
2022/06/26 11:50:20;;;;;;;1.65;1.52;;;;;;;26.41;51.73;98598.91;5048175;28;20305;-51
2022/06/26 11:52:53;;;;;;;3.23;1.60;;;;;;;26.36;51.46;98605.06;5034352;28;20237;-50
2022/06/26 11:55:21;;;;;;;1.67;1.57;;;;;;;26.17;51.60;98591.22;5033743;28;20213;-51
2022/06/26 11:57:48;;;;;;;1.77;1.65;;;;;;;25.87;52.64;98584.53;5035520;28;20226;-52
2022/06/26 12:00:18;;;;;;;1.70;1.60;;;;;;;25.75;52.28;98584.66;5032159;28;20241;-50